sensor_id;sensor_type;location;lat;lon;timestamp;P1;durP1;ratioP1;P2;durP2;ratioP2
71790;SDS011;59638;52.126;5.434;2023-04-01T00:02:21;11.45;;;4.22;;
71790;SDS011;59638;52.126;5.434;2023-04-01T00:04:48;12.20;;;4.20;;
71790;SDS011;59638;52.126;5.434;2023-04-01T00:07:14;8.82;;;3.72;;
71790;SDS011;59638;52.126;5.434;2023-04-01T00:09:40;20.70;;;5.25;;
71790;SDS011;59638;52.126;5.434;2023-04-01T00:12:07;15.77;;;5.20;;
71790;SDS011;59638;52.126;5.434;2023-04-01T00:14:33;16.23;;;5.20;;
71790;SDS011;59638;52.126;5.434;2023-04-01T00:17:00;14.73;;;5.30;;
71790;SDS011;59638;52.126;5.434;2023-04-01T00:19:29;17.35;;;4.93;;
71790;SDS011;59638;52.126;5.434;2023-04-01T00:21:55;16.17;;;4.90;;
71790;SDS011;59638;52.126;5.434;2023-04-01T00:24:22;16.00;;;4.93;;
71790;SDS011;59638;52.126;5.434;2023-04-01T00:26:48;15.57;;;5.22;;
71790;SDS011;59638;52.126;5.434;2023-04-01T00:29:15;19.25;;;5.32;;
71790;SDS011;59638;52.126;5.434;2023-04-01T00:31:41;17.55;;;5.57;;
71790;SDS011;59638;52.126;5.434;2023-04-01T00:34:08;14.90;;;4.85;;
71790;SDS011;59638;52.126;5.434;2023-04-01T00:36:34;9.70;;;3.80;;
71790;SDS011;59638;52.126;5.434;2023-04-01T00:39:00;23.60;;;4.55;;
71790;SDS011;59638;52.126;5.434;2023-04-01T00:41:27;15.40;;;5.35;;
71790;SDS011;59638;52.126;5.434;2023-04-01T00:44:11;20.20;;;5.35;;
71790;SDS011;59638;52.126;5.434;2023-04-01T00:46:42;26.52;;;5.28;;
71790;SDS011;59638;52.126;5.434;2023-04-01T00:49:08;16.40;;;4.67;;
71790;SDS011;59638;52.126;5.434;2023-04-01T00:51:35;19.48;;;5.72;;
71790;SDS011;59638;52.126;5.434;2023-04-01T00:54:04;21.33;;;6.53;;
71790;SDS011;59638;52.126;5.434;2023-04-01T00:56:32;29.75;;;7.30;;
71790;SDS011;59638;52.126;5.434;2023-04-01T00:59:02;19.30;;;6.80;;
71790;SDS011;59638;52.126;5.434;2023-04-01T01:01:34;27.37;;;7.43;;
71790;SDS011;59638;52.126;5.434;2023-04-01T01:04:01;17.45;;;4.53;;
71790;SDS011;59638;52.126;5.434;2023-04-01T01:09:25;18.08;;;4.45;;
71790;SDS011;59638;52.126;5.434;2023-04-01T01:12:06;5.45;;;1.98;;
71790;SDS011;59638;52.126;5.434;2023-04-01T01:31:20;20.00;;;6.00;;
71790;SDS011;59638;52.126;5.434;2023-04-01T01:36:36;22.75;;;6.30;;
71790;SDS011;59638;52.126;5.434;2023-04-01T01:39:06;19.20;;;4.78;;
71790;SDS011;59638;52.126;5.434;2023-04-01T01:41:35;18.60;;;4.97;;
71790;SDS011;59638;52.126;5.434;2023-04-01T01:44:04;12.43;;;3.13;;
71790;SDS011;59638;52.126;5.434;2023-04-01T01:46:36;10.88;;;3.20;;
71790;SDS011;59638;52.126;5.434;2023-04-01T01:49:05;10.07;;;2.83;;
71790;SDS011;59638;52.126;5.434;2023-04-01T01:51:34;6.53;;;2.50;;
71790;SDS011;59638;52.126;5.434;2023-04-01T01:54:01;4.77;;;1.40;;
71790;SDS011;59638;52.126;5.434;2023-04-01T01:56:28;5.68;;;1.77;;
71790;SDS011;59638;52.126;5.434;2023-04-01T01:59:07;3.33;;;1.08;;
71790;SDS011;59638;52.126;5.434;2023-04-01T02:01:37;3.75;;;1.48;;
71790;SDS011;59638;52.126;5.434;2023-04-01T02:04:08;4.03;;;1.42;;
71790;SDS011;59638;52.126;5.434;2023-04-01T02:06:37;6.90;;;1.70;;
71790;SDS011;59638;52.126;5.434;2023-04-01T02:09:07;5.20;;;1.77;;
71790;SDS011;59638;52.126;5.434;2023-04-01T02:11:47;5.85;;;2.00;;
71790;SDS011;59638;52.126;5.434;2023-04-01T02:14:18;4.07;;;0.98;;
71790;SDS011;59638;52.126;5.434;2023-04-01T02:19:26;4.43;;;0.77;;
71790;SDS011;59638;52.126;5.434;2023-04-01T02:21:59;7.63;;;0.77;;
71790;SDS011;59638;52.126;5.434;2023-04-01T02:24:28;2.17;;;0.57;;
71790;SDS011;59638;52.126;5.434;2023-04-01T02:26:57;5.78;;;0.88;;
71790;SDS011;59638;52.126;5.434;2023-04-01T02:29:24;5.63;;;0.95;;
71790;SDS011;59638;52.126;5.434;2023-04-01T02:31:53;2.57;;;0.67;;
71790;SDS011;59638;52.126;5.434;2023-04-01T02:34:21;2.40;;;0.73;;
71790;SDS011;59638;52.126;5.434;2023-04-01T02:36:49;7.22;;;0.88;;
71790;SDS011;59638;52.126;5.434;2023-04-01T02:39:17;6.88;;;1.30;;
71790;SDS011;59638;52.126;5.434;2023-04-01T02:41:44;6.20;;;1.13;;
71790;SDS011;59638;52.126;5.434;2023-04-01T02:44:12;2.40;;;0.70;;
71790;SDS011;59638;52.126;5.434;2023-04-01T02:46:41;4.28;;;1.02;;
71790;SDS011;59638;52.126;5.434;2023-04-01T02:49:08;0.82;;;0.43;;
71790;SDS011;59638;52.126;5.434;2023-04-01T02:51:35;11.02;;;1.58;;
71790;SDS011;59638;52.126;5.434;2023-04-01T02:54:01;10.57;;;1.73;;
71790;SDS011;59638;52.126;5.434;2023-04-01T02:56:27;3.40;;;1.33;;
71790;SDS011;59638;52.126;5.434;2023-04-01T02:58:54;6.90;;;1.83;;
71790;SDS011;59638;52.126;5.434;2023-04-01T03:01:21;5.82;;;1.48;;
71790;SDS011;59638;52.126;5.434;2023-04-01T03:03:48;4.43;;;1.30;;
71790;SDS011;59638;52.126;5.434;2023-04-01T03:06:15;5.30;;;1.30;;
71790;SDS011;59638;52.126;5.434;2023-04-01T03:08:42;1.87;;;0.70;;
71790;SDS011;59638;52.126;5.434;2023-04-01T03:11:09;5.45;;;1.15;;
71790;SDS011;59638;52.126;5.434;2023-04-01T03:13:36;5.20;;;1.00;;
71790;SDS011;59638;52.126;5.434;2023-04-01T03:16:03;1.80;;;0.90;;
71790;SDS011;59638;52.126;5.434;2023-04-01T03:18:30;6.10;;;1.00;;
71790;SDS011;59638;52.126;5.434;2023-04-01T03:20:56;4.17;;;0.63;;
71790;SDS011;59638;52.126;5.434;2023-04-01T03:23:23;2.50;;;0.85;;
71790;SDS011;59638;52.126;5.434;2023-04-01T03:25:50;3.75;;;0.98;;
71790;SDS011;59638;52.126;5.434;2023-04-01T03:28:16;3.13;;;0.32;;
71790;SDS011;59638;52.126;5.434;2023-04-01T03:30:43;2.75;;;0.70;;
71790;SDS011;59638;52.126;5.434;2023-04-01T03:33:09;7.60;;;0.60;;
71790;SDS011;59638;52.126;5.434;2023-04-01T03:35:36;2.38;;;0.65;;
71790;SDS011;59638;52.126;5.434;2023-04-01T03:38:02;1.75;;;0.70;;
71790;SDS011;59638;52.126;5.434;2023-04-01T03:40:29;2.75;;;0.60;;
71790;SDS011;59638;52.126;5.434;2023-04-01T03:42:55;3.20;;;1.10;;
71790;SDS011;59638;52.126;5.434;2023-04-01T03:45:22;5.60;;;1.40;;
71790;SDS011;59638;52.126;5.434;2023-04-01T03:47:48;2.78;;;1.13;;
71790;SDS011;59638;52.126;5.434;2023-04-01T03:50:15;5.63;;;1.23;;
71790;SDS011;59638;52.126;5.434;2023-04-01T03:52:42;4.15;;;2.03;;
71790;SDS011;59638;52.126;5.434;2023-04-01T03:55:08;6.80;;;2.45;;
71790;SDS011;59638;52.126;5.434;2023-04-01T03:57:34;6.27;;;2.80;;
71790;SDS011;59638;52.126;5.434;2023-04-01T04:00:01;7.45;;;2.80;;
71790;SDS011;59638;52.126;5.434;2023-04-01T04:02:28;15.60;;;3.95;;
71790;SDS011;59638;52.126;5.434;2023-04-01T04:04:54;11.15;;;3.63;;
71790;SDS011;59638;52.126;5.434;2023-04-01T04:07:20;8.95;;;3.50;;
71790;SDS011;59638;52.126;5.434;2023-04-01T04:09:47;9.57;;;3.63;;
71790;SDS011;59638;52.126;5.434;2023-04-01T04:12:13;10.57;;;3.58;;
71790;SDS011;59638;52.126;5.434;2023-04-01T04:14:40;7.38;;;3.80;;
71790;SDS011;59638;52.126;5.434;2023-04-01T04:17:06;7.45;;;3.60;;
71790;SDS011;59638;52.126;5.434;2023-04-01T04:19:34;12.02;;;3.92;;
71790;SDS011;59638;52.126;5.434;2023-04-01T04:22:00;10.17;;;3.80;;
71790;SDS011;59638;52.126;5.434;2023-04-01T04:24:27;7.90;;;3.92;;
71790;SDS011;59638;52.126;5.434;2023-04-01T04:26:54;8.32;;;4.30;;
71790;SDS011;59638;52.126;5.434;2023-04-01T04:29:20;4.20;;;2.17;;
71790;SDS011;59638;52.126;5.434;2023-04-01T04:31:48;12.05;;;3.45;;
71790;SDS011;59638;52.126;5.434;2023-04-01T04:34:15;5.73;;;3.00;;
71790;SDS011;59638;52.126;5.434;2023-04-01T04:36:41;7.95;;;2.33;;
71790;SDS011;59638;52.126;5.434;2023-04-01T04:39:07;7.45;;;2.45;;
71790;SDS011;59638;52.126;5.434;2023-04-01T04:41:36;6.25;;;2.40;;
71790;SDS011;59638;52.126;5.434;2023-04-01T04:44:03;4.05;;;2.03;;
71790;SDS011;59638;52.126;5.434;2023-04-01T04:46:30;5.43;;;2.57;;
71790;SDS011;59638;52.126;5.434;2023-04-01T04:48:57;4.70;;;1.00;;
71790;SDS011;59638;52.126;5.434;2023-04-01T04:51:23;4.50;;;2.33;;
71790;SDS011;59638;52.126;5.434;2023-04-01T04:53:50;3.58;;;2.03;;
71790;SDS011;59638;52.126;5.434;2023-04-01T04:56:21;6.40;;;2.75;;
71790;SDS011;59638;52.126;5.434;2023-04-01T04:58:48;8.70;;;2.90;;
71790;SDS011;59638;52.126;5.434;2023-04-01T05:01:15;2.90;;;1.15;;
71790;SDS011;59638;52.126;5.434;2023-04-01T05:03:42;8.13;;;2.15;;
71790;SDS011;59638;52.126;5.434;2023-04-01T05:06:09;12.02;;;2.35;;
71790;SDS011;59638;52.126;5.434;2023-04-01T05:08:37;10.73;;;2.63;;
71790;SDS011;59638;52.126;5.434;2023-04-01T05:11:07;5.53;;;2.13;;
71790;SDS011;59638;52.126;5.434;2023-04-01T05:13:36;4.95;;;1.60;;
71790;SDS011;59638;52.126;5.434;2023-04-01T05:16:02;3.35;;;1.63;;
71790;SDS011;59638;52.126;5.434;2023-04-01T05:18:29;7.20;;;1.63;;
71790;SDS011;59638;52.126;5.434;2023-04-01T05:20:55;3.17;;;1.40;;
71790;SDS011;59638;52.126;5.434;2023-04-01T05:23:22;5.67;;;2.17;;
71790;SDS011;59638;52.126;5.434;2023-04-01T05:25:48;5.28;;;2.42;;
71790;SDS011;59638;52.126;5.434;2023-04-01T05:28:15;5.63;;;2.53;;
71790;SDS011;59638;52.126;5.434;2023-04-01T05:30:42;6.88;;;2.72;;
71790;SDS011;59638;52.126;5.434;2023-04-01T05:33:10;4.15;;;1.30;;
71790;SDS011;59638;52.126;5.434;2023-04-01T05:35:37;4.43;;;1.77;;
71790;SDS011;59638;52.126;5.434;2023-04-01T05:38:03;7.90;;;2.67;;
71790;SDS011;59638;52.126;5.434;2023-04-01T05:40:30;6.07;;;2.75;;
71790;SDS011;59638;52.126;5.434;2023-04-01T05:42:57;3.80;;;1.85;;
71790;SDS011;59638;52.126;5.434;2023-04-01T05:45:25;4.47;;;2.40;;
71790;SDS011;59638;52.126;5.434;2023-04-01T05:47:51;5.73;;;1.77;;
71790;SDS011;59638;52.126;5.434;2023-04-01T05:50:18;7.05;;;2.58;;
71790;SDS011;59638;52.126;5.434;2023-04-01T05:52:45;4.20;;;1.77;;
71790;SDS011;59638;52.126;5.434;2023-04-01T05:55:11;3.10;;;1.20;;
71790;SDS011;59638;52.126;5.434;2023-04-01T05:57:38;4.20;;;1.17;;
71790;SDS011;59638;52.126;5.434;2023-04-01T06:00:04;3.53;;;1.10;;
71790;SDS011;59638;52.126;5.434;2023-04-01T06:02:31;2.35;;;1.20;;
71790;SDS011;59638;52.126;5.434;2023-04-01T06:07:44;2.53;;;0.90;;
71790;SDS011;59638;52.126;5.434;2023-04-01T06:10:15;2.40;;;0.93;;
71790;SDS011;59638;52.126;5.434;2023-04-01T06:15:25;3.50;;;1.35;;
71790;SDS011;59638;52.126;5.434;2023-04-01T06:23:53;4.28;;;1.38;;
71790;SDS011;59638;52.126;5.434;2023-04-01T06:26:30;3.30;;;1.00;;
71790;SDS011;59638;52.126;5.434;2023-04-01T06:32:12;2.67;;;1.13;;
71790;SDS011;59638;52.126;5.434;2023-04-01T06:37:41;2.45;;;0.90;;
71790;SDS011;59638;52.126;5.434;2023-04-01T06:49:12;3.00;;;1.45;;
71790;SDS011;59638;52.126;5.434;2023-04-01T06:54:21;2.03;;;0.23;;
71790;SDS011;59638;52.126;5.434;2023-04-01T06:56:57;2.50;;;1.02;;
71790;SDS011;59638;52.126;5.434;2023-04-01T06:59:27;3.08;;;1.05;;
71790;SDS011;59638;52.126;5.434;2023-04-01T07:02:16;3.80;;;0.70;;
71790;SDS011;59638;52.126;5.434;2023-04-01T07:04:58;3.85;;;0.55;;
71790;SDS011;59638;52.126;5.434;2023-04-01T07:07:29;1.07;;;0.30;;
71790;SDS011;59638;52.126;5.434;2023-04-01T07:10:04;1.50;;;0.50;;
71790;SDS011;59638;52.126;5.434;2023-04-01T07:12:38;1.45;;;0.38;;
71790;SDS011;59638;52.126;5.434;2023-04-01T07:15:15;1.23;;;0.30;;
71790;SDS011;59638;52.126;5.434;2023-04-01T07:17:53;2.38;;;0.43;;
71790;SDS011;59638;52.126;5.434;2023-04-01T07:20:24;2.20;;;0.70;;
71790;SDS011;59638;52.126;5.434;2023-04-01T07:22:59;2.30;;;0.70;;
71790;SDS011;59638;52.126;5.434;2023-04-01T07:25:31;2.33;;;0.98;;
71790;SDS011;59638;52.126;5.434;2023-04-01T07:28:05;2.83;;;1.40;;
71790;SDS011;59638;52.126;5.434;2023-04-01T07:33:48;2.93;;;0.80;;
71790;SDS011;59638;52.126;5.434;2023-04-01T07:36:33;6.57;;;1.50;;
71790;SDS011;59638;52.126;5.434;2023-04-01T07:53:01;1.90;;;0.68;;
71790;SDS011;59638;52.126;5.434;2023-04-01T07:58:49;5.30;;;2.13;;
71790;SDS011;59638;52.126;5.434;2023-04-01T08:01:26;3.70;;;1.63;;
71790;SDS011;59638;52.126;5.434;2023-04-01T08:04:23;5.15;;;2.30;;
71790;SDS011;59638;52.126;5.434;2023-04-01T08:09:47;7.65;;;2.45;;
71790;SDS011;59638;52.126;5.434;2023-04-01T08:20:55;4.05;;;2.30;;
71790;SDS011;59638;52.126;5.434;2023-04-01T08:23:30;1.95;;;0.95;;
71790;SDS011;59638;52.126;5.434;2023-04-01T08:28:55;5.33;;;2.07;;
71790;SDS011;59638;52.126;5.434;2023-04-01T08:34:07;7.25;;;2.58;;
71790;SDS011;59638;52.126;5.434;2023-04-01T08:36:50;7.20;;;2.05;;
71790;SDS011;59638;52.126;5.434;2023-04-01T08:39:23;5.35;;;1.77;;
71790;SDS011;59638;52.126;5.434;2023-04-01T08:53:42;7.95;;;3.17;;
71790;SDS011;59638;52.126;5.434;2023-04-01T08:56:23;7.40;;;3.13;;
71790;SDS011;59638;52.126;5.434;2023-04-01T08:59:05;5.15;;;2.75;;
71790;SDS011;59638;52.126;5.434;2023-04-01T09:01:58;5.63;;;3.00;;
71790;SDS011;59638;52.126;5.434;2023-04-01T09:05:31;5.95;;;3.67;;
71790;SDS011;59638;52.126;5.434;2023-04-01T09:10:20;8.20;;;3.83;;
71790;SDS011;59638;52.126;5.434;2023-04-01T09:21:19;4.60;;;1.58;;
71790;SDS011;59638;52.126;5.434;2023-04-01T09:40:58;5.07;;;2.70;;
71790;SDS011;59638;52.126;5.434;2023-04-01T09:46:26;3.50;;;2.45;;
71790;SDS011;59638;52.126;5.434;2023-04-01T10:01:28;10.15;;;4.25;;
71790;SDS011;59638;52.126;5.434;2023-04-01T10:23:37;6.45;;;3.22;;
71790;SDS011;59638;52.126;5.434;2023-04-01T10:40:50;4.60;;;2.60;;
71790;SDS011;59638;52.126;5.434;2023-04-01T11:00:18;5.30;;;2.45;;
71790;SDS011;59638;52.126;5.434;2023-04-01T11:16:47;2.07;;;0.83;;
71790;SDS011;59638;52.126;5.434;2023-04-01T11:27:51;2.17;;;1.05;;
71790;SDS011;59638;52.126;5.434;2023-04-01T11:30:29;0.80;;;0.20;;
71790;SDS011;59638;52.126;5.434;2023-04-01T11:33:14;0.95;;;0.20;;
71790;SDS011;59638;52.126;5.434;2023-04-01T11:38:26;0.93;;;0.20;;
71790;SDS011;59638;52.126;5.434;2023-04-01T11:41:30;1.38;;;0.20;;
71790;SDS011;59638;52.126;5.434;2023-04-01T12:01:14;1.25;;;0.30;;
71790;SDS011;59638;52.126;5.434;2023-04-01T12:06:30;1.25;;;0.40;;
71790;SDS011;59638;52.126;5.434;2023-04-01T12:09:12;0.80;;;0.28;;
71790;SDS011;59638;52.126;5.434;2023-04-01T12:11:48;1.43;;;0.30;;
71790;SDS011;59638;52.126;5.434;2023-04-01T12:14:39;1.50;;;0.52;;
71790;SDS011;59638;52.126;5.434;2023-04-01T12:32:25;3.50;;;2.28;;
71790;SDS011;59638;52.126;5.434;2023-04-01T12:35:21;3.70;;;2.58;;
71790;SDS011;59638;52.126;5.434;2023-04-01T12:51:34;9.57;;;4.78;;
71790;SDS011;59638;52.126;5.434;2023-04-01T12:54:18;6.60;;;4.43;;
71790;SDS011;59638;52.126;5.434;2023-04-01T13:00:03;7.88;;;5.53;;
71790;SDS011;59638;52.126;5.434;2023-04-01T13:02:40;6.25;;;3.55;;
71790;SDS011;59638;52.126;5.434;2023-04-01T13:19:57;4.60;;;3.05;;
71790;SDS011;59638;52.126;5.434;2023-04-01T13:27:46;4.07;;;2.63;;
71790;SDS011;59638;52.126;5.434;2023-04-01T13:30:30;3.65;;;1.83;;
71790;SDS011;59638;52.126;5.434;2023-04-01T13:33:30;3.28;;;1.50;;
71790;SDS011;59638;52.126;5.434;2023-04-01T13:41:40;1.67;;;1.07;;
71790;SDS011;59638;52.126;5.434;2023-04-01T13:44:30;2.97;;;1.92;;
71790;SDS011;59638;52.126;5.434;2023-04-01T13:55:39;5.20;;;1.37;;
71790;SDS011;59638;52.126;5.434;2023-04-01T14:01:05;3.70;;;1.52;;
71790;SDS011;59638;52.126;5.434;2023-04-01T14:03:49;3.38;;;0.95;;
71790;SDS011;59638;52.126;5.434;2023-04-01T14:06:35;2.17;;;0.77;;
71790;SDS011;59638;52.126;5.434;2023-04-01T14:09:29;1.87;;;0.90;;
71790;SDS011;59638;52.126;5.434;2023-04-01T14:12:12;3.17;;;1.27;;
71790;SDS011;59638;52.126;5.434;2023-04-01T14:32:02;6.78;;;2.13;;
71790;SDS011;59638;52.126;5.434;2023-04-01T14:34:50;4.20;;;0.70;;
71790;SDS011;59638;52.126;5.434;2023-04-01T14:40:28;1.15;;;0.77;;
71790;SDS011;59638;52.126;5.434;2023-04-01T14:48:35;4.57;;;1.60;;
71790;SDS011;59638;52.126;5.434;2023-04-01T14:56:38;2.30;;;0.88;;
71790;SDS011;59638;52.126;5.434;2023-04-01T14:59:09;0.80;;;0.43;;
71790;SDS011;59638;52.126;5.434;2023-04-01T15:10:24;2.90;;;2.08;;
71790;SDS011;59638;52.126;5.434;2023-04-01T15:13:15;2.75;;;1.50;;
71790;SDS011;59638;52.126;5.434;2023-04-01T15:38:06;1.25;;;0.73;;
71790;SDS011;59638;52.126;5.434;2023-04-01T15:52:10;1.20;;;0.65;;
71790;SDS011;59638;52.126;5.434;2023-04-01T16:00:33;1.60;;;0.97;;
71790;SDS011;59638;52.126;5.434;2023-04-01T16:09:00;1.25;;;0.65;;
71790;SDS011;59638;52.126;5.434;2023-04-01T16:19:51;2.20;;;0.75;;
71790;SDS011;59638;52.126;5.434;2023-04-01T16:22:23;1.30;;;0.75;;
71790;SDS011;59638;52.126;5.434;2023-04-01T16:27:47;3.60;;;1.07;;
71790;SDS011;59638;52.126;5.434;2023-04-01T16:30:37;1.48;;;1.02;;
71790;SDS011;59638;52.126;5.434;2023-04-01T16:36:14;1.50;;;0.80;;
71790;SDS011;59638;52.126;5.434;2023-04-01T16:41:36;0.90;;;0.60;;
71790;SDS011;59638;52.126;5.434;2023-04-01T16:44:13;1.92;;;1.10;;
71790;SDS011;59638;52.126;5.434;2023-04-01T16:46:46;1.80;;;1.38;;
71790;SDS011;59638;52.126;5.434;2023-04-01T16:49:37;1.80;;;1.30;;
71790;SDS011;59638;52.126;5.434;2023-04-01T16:54:40;1.77;;;0.73;;
71790;SDS011;59638;52.126;5.434;2023-04-01T17:02:25;2.08;;;1.20;;
71790;SDS011;59638;52.126;5.434;2023-04-01T17:05:11;1.55;;;0.65;;
71790;SDS011;59638;52.126;5.434;2023-04-01T17:10:46;1.23;;;0.68;;
71790;SDS011;59638;52.126;5.434;2023-04-01T17:19:12;1.02;;;0.40;;
71790;SDS011;59638;52.126;5.434;2023-04-01T17:24:26;2.65;;;1.80;;
71790;SDS011;59638;52.126;5.434;2023-04-01T17:27:14;2.85;;;1.02;;
71790;SDS011;59638;52.126;5.434;2023-04-01T17:36:05;0.70;;;0.57;;
71790;SDS011;59638;52.126;5.434;2023-04-01T17:42:00;1.15;;;0.63;;
71790;SDS011;59638;52.126;5.434;2023-04-01T17:56:21;2.63;;;0.98;;
71790;SDS011;59638;52.126;5.434;2023-04-01T17:59:15;1.38;;;0.70;;
71790;SDS011;59638;52.126;5.434;2023-04-01T18:01:48;0.32;;;0.10;;
71790;SDS011;59638;52.126;5.434;2023-04-01T18:15:45;1.17;;;0.75;;
71790;SDS011;59638;52.126;5.434;2023-04-01T18:18:34;1.77;;;1.40;;
71790;SDS011;59638;52.126;5.434;2023-04-01T18:24:06;1.67;;;1.10;;
71790;SDS011;59638;52.126;5.434;2023-04-01T18:26:43;2.55;;;0.90;;
71790;SDS011;59638;52.126;5.434;2023-04-01T18:35:16;0.95;;;0.80;;
71790;SDS011;59638;52.126;5.434;2023-04-01T18:37:53;1.35;;;0.82;;
71790;SDS011;59638;52.126;5.434;2023-04-01T18:40:34;1.02;;;0.52;;
71790;SDS011;59638;52.126;5.434;2023-04-01T18:43:12;0.93;;;0.43;;
71790;SDS011;59638;52.126;5.434;2023-04-01T18:45:51;1.20;;;0.73;;
71790;SDS011;59638;52.126;5.434;2023-04-01T18:51:47;1.00;;;0.80;;
71790;SDS011;59638;52.126;5.434;2023-04-01T18:54:23;1.48;;;0.75;;
71790;SDS011;59638;52.126;5.434;2023-04-01T18:57:07;0.73;;;0.43;;
71790;SDS011;59638;52.126;5.434;2023-04-01T18:59:39;3.20;;;1.77;;
71790;SDS011;59638;52.126;5.434;2023-04-01T19:02:34;1.33;;;1.02;;
71790;SDS011;59638;52.126;5.434;2023-04-01T19:05:11;1.30;;;0.88;;
71790;SDS011;59638;52.126;5.434;2023-04-01T19:10:13;0.75;;;0.45;;
71790;SDS011;59638;52.126;5.434;2023-04-01T19:15:42;1.92;;;1.73;;
71790;SDS011;59638;52.126;5.434;2023-04-01T19:20:51;1.23;;;0.52;;
71790;SDS011;59638;52.126;5.434;2023-04-01T19:26:05;3.00;;;2.70;;
71790;SDS011;59638;52.126;5.434;2023-04-01T19:28:43;0.70;;;0.70;;
71790;SDS011;59638;52.126;5.434;2023-04-01T19:39:52;2.40;;;1.63;;
71790;SDS011;59638;52.126;5.434;2023-04-01T19:48:05;1.98;;;1.75;;
71790;SDS011;59638;52.126;5.434;2023-04-01T19:53:44;1.33;;;1.10;;
71790;SDS011;59638;52.126;5.434;2023-04-01T19:56:20;5.10;;;1.23;;
71790;SDS011;59638;52.126;5.434;2023-04-01T19:59:01;2.88;;;1.42;;
71790;SDS011;59638;52.126;5.434;2023-04-01T20:04:22;2.47;;;1.58;;
71790;SDS011;59638;52.126;5.434;2023-04-01T20:09:55;5.40;;;2.92;;
71790;SDS011;59638;52.126;5.434;2023-04-01T20:12:38;1.75;;;1.55;;
71790;SDS011;59638;52.126;5.434;2023-04-01T20:17:59;0.90;;;0.57;;
71790;SDS011;59638;52.126;5.434;2023-04-01T20:20:29;0.93;;;0.43;;
71790;SDS011;59638;52.126;5.434;2023-04-01T20:23:04;3.15;;;1.73;;
71790;SDS011;59638;52.126;5.434;2023-04-01T20:25:45;3.33;;;2.70;;
71790;SDS011;59638;52.126;5.434;2023-04-01T20:28:20;2.85;;;1.00;;
71790;SDS011;59638;52.126;5.434;2023-04-01T20:31:00;1.73;;;1.02;;
71790;SDS011;59638;52.126;5.434;2023-04-01T20:41:57;6.25;;;3.55;;
71790;SDS011;59638;52.126;5.434;2023-04-01T20:45:01;2.55;;;2.35;;
71790;SDS011;59638;52.126;5.434;2023-04-01T20:47:54;3.55;;;1.67;;
71790;SDS011;59638;52.126;5.434;2023-04-01T20:53:20;4.53;;;3.78;;
71790;SDS011;59638;52.126;5.434;2023-04-01T21:05:00;4.50;;;3.78;;
71790;SDS011;59638;52.126;5.434;2023-04-01T21:19:28;3.13;;;2.83;;
71790;SDS011;59638;52.126;5.434;2023-04-01T21:25:01;3.13;;;1.00;;
71790;SDS011;59638;52.126;5.434;2023-04-01T21:27:55;1.42;;;1.08;;
71790;SDS011;59638;52.126;5.434;2023-04-01T21:40:50;3.22;;;1.23;;
71790;SDS011;59638;52.126;5.434;2023-04-01T21:43:28;3.90;;;3.50;;
71790;SDS011;59638;52.126;5.434;2023-04-01T21:57:15;2.45;;;1.83;;
71790;SDS011;59638;52.126;5.434;2023-04-01T22:00:07;2.65;;;1.77;;
71790;SDS011;59638;52.126;5.434;2023-04-01T22:05:37;3.20;;;2.30;;
71790;SDS011;59638;52.126;5.434;2023-04-01T22:11:19;3.47;;;2.45;;
71790;SDS011;59638;52.126;5.434;2023-04-01T22:14:08;2.33;;;2.05;;
71790;SDS011;59638;52.126;5.434;2023-04-01T22:16:44;1.65;;;1.45;;
71790;SDS011;59638;52.126;5.434;2023-04-01T22:19:41;1.70;;;1.42;;
71790;SDS011;59638;52.126;5.434;2023-04-01T22:25:17;3.20;;;1.55;;
71790;SDS011;59638;52.126;5.434;2023-04-01T22:27:52;2.30;;;1.60;;
71790;SDS011;59638;52.126;5.434;2023-04-01T22:32:58;0.95;;;0.65;;
71790;SDS011;59638;52.126;5.434;2023-04-01T22:35:49;2.45;;;1.80;;
71790;SDS011;59638;52.126;5.434;2023-04-01T22:39:20;1.10;;;0.95;;
71790;SDS011;59638;52.126;5.434;2023-04-01T22:51:11;3.57;;;3.27;;
71790;SDS011;59638;52.126;5.434;2023-04-01T22:53:32;4.65;;;1.75;;
71790;SDS011;59638;52.126;5.434;2023-04-01T22:56:27;9.85;;;4.00;;
71790;SDS011;59638;52.126;5.434;2023-04-01T23:01:32;2.45;;;1.10;;
71790;SDS011;59638;52.126;5.434;2023-04-01T23:04:05;6.30;;;2.23;;
71790;SDS011;59638;52.126;5.434;2023-04-01T23:06:38;2.83;;;2.28;;
71790;SDS011;59638;52.126;5.434;2023-04-01T23:09:10;9.48;;;3.42;;
71790;SDS011;59638;52.126;5.434;2023-04-01T23:17:07;1.55;;;1.20;;
71790;SDS011;59638;52.126;5.434;2023-04-01T23:19:59;5.38;;;3.45;;
71790;SDS011;59638;52.126;5.434;2023-04-01T23:25:45;7.40;;;4.57;;
71790;SDS011;59638;52.126;5.434;2023-04-01T23:28:24;3.80;;;2.88;;
71790;SDS011;59638;52.126;5.434;2023-04-01T23:31:24;7.30;;;3.85;;
71790;SDS011;59638;52.126;5.434;2023-04-01T23:33:55;2.92;;;2.20;;
71790;SDS011;59638;52.126;5.434;2023-04-01T23:36:23;9.48;;;3.88;;
71790;SDS011;59638;52.126;5.434;2023-04-01T23:38:50;5.88;;;3.88;;
71790;SDS011;59638;52.126;5.434;2023-04-01T23:41:22;2.75;;;1.70;;
71790;SDS011;59638;52.126;5.434;2023-04-01T23:44:13;5.00;;;3.83;;
71790;SDS011;59638;52.126;5.434;2023-04-01T23:46:40;10.57;;;4.90;;
71790;SDS011;59638;52.126;5.434;2023-04-01T23:49:12;3.17;;;2.60;;
71790;SDS011;59638;52.126;5.434;2023-04-01T23:51:56;5.28;;;2.60;;
71790;SDS011;59638;52.126;5.434;2023-04-01T23:54:30;4.35;;;2.60;;
71790;SDS011;59638;52.126;5.434;2023-04-01T23:56:59;4.55;;;3.10;;
71790;SDS011;59638;52.126;5.434;2023-04-01T23:59:36;7.40;;;4.72;;
